Time;durP1;ratioP1;P1;durP2;ratioP2;P2;SDS_P1;SDS_P2;PMS_P1;PMS_P2;Temp;Humidity;BMP_temperature;BMP_pressure;BME280_temperature;BME280_humidity;BME280_pressure;Samples;Min_cycle;Max_cycle;Signal;HPM_P1;HPM_P2
2023/09/22 00:00:18;;;;;;;0.52;0.52;;;13.40;99.90;;;;;;5017388;28;20041;-70
2023/09/22 00:02:45;;;;;;;0.75;0.75;;;13.70;99.90;;;;;;5017711;28;20374;-70
2023/09/22 00:05:13;;;;;;;0.52;0.52;;;13.50;99.90;;;;;;5035206;28;20048;-70
2023/09/22 00:07:40;;;;;;;1.10;0.82;;;13.50;99.90;;;;;;5035241;28;20034;-71
2023/09/22 00:10:07;;;;;;;0.90;0.90;;;13.60;99.90;;;;;;5017151;28;20060;-70
2023/09/22 00:12:33;;;;;;;1.20;0.90;;;13.70;99.90;;;;;;5035217;28;20073;-70
2023/09/22 00:15:00;;;;;;;2.30;1.50;;;14.30;99.90;;;;;;5034757;28;20037;-70
2023/09/22 00:17:28;;;;;;;1.75;1.30;;;13.60;99.90;;;;;;5016906;28;20060;-70
2023/09/22 00:19:55;;;;;;;1.70;1.50;;;13.60;99.90;;;;;;5035036;28;20033;-70
2023/09/22 00:22:20;;;;;;;2.08;1.50;;;13.70;99.90;;;;;;5016967;28;20440;-70
2023/09/22 00:24:46;;;;;;;2.60;1.63;;;13.80;99.90;;;;;;5034888;28;20041;-70
2023/09/22 00:27:15;;;;;;;1.88;1.70;;;13.80;99.90;;;;;;5034852;28;20039;-70
2023/09/22 00:29:41;;;;;;;2.28;2.00;;;13.80;99.90;;;;;;5034817;28;20041;-70
2023/09/22 00:32:07;;;;;;;2.35;2.00;;;14.00;99.90;;;;;;5017014;28;20063;-70
2023/09/22 00:34:33;;;;;;;2.78;2.00;;;14.50;99.90;;;;;;5034363;28;20042;-70
2023/09/22 00:36:59;;;;;;;1.83;1.73;;;13.80;99.90;;;;;;5034344;28;20064;-69
2023/09/22 00:39:24;;;;;;;2.22;1.80;;;14.40;99.90;;;;;;5034599;28;20120;-70
2023/09/22 00:41:54;;;;;;;2.30;2.10;;;14.10;99.90;;;;;;5034522;28;20034;-70
2023/09/22 00:44:19;;;;;;;2.15;1.95;;;13.90;99.90;;;;;;5016880;28;20057;-70
2023/09/22 00:46:45;;;;;;;2.72;2.22;;;13.90;99.90;;;;;;5016545;28;20042;-70
2023/09/22 00:49:12;;;;;;;2.50;2.30;;;14.80;99.90;;;;;;5034359;28;20124;-70
2023/09/22 00:51:38;;;;;;;2.60;2.40;;;13.90;99.90;;;;;;5034414;28;20052;-70
2023/09/22 00:54:04;;;;;;;2.50;2.30;;;14.50;99.90;;;;;;5016275;28;20041;-70
2023/09/22 00:56:30;;;;;;;2.50;2.30;;;14.00;99.90;;;;;;5034266;28;20504;-70
2023/09/22 00:58:56;;;;;;;2.75;2.55;;;14.10;99.90;;;;;;5033937;28;20085;-70
2023/09/22 01:01:23;;;;;;;2.95;2.75;;;14.10;99.90;;;;;;5016308;28;20135;-70
2023/09/22 01:03:51;;;;;;;3.22;2.92;;;14.10;99.90;;;;;;5016402;28;20053;-70
2023/09/22 01:06:19;;;;;;;2.85;2.65;;;14.30;99.90;;;;;;5032519;28;20549;-65
2023/09/22 01:08:45;;;;;;;2.72;2.53;;;14.20;99.90;;;;;;5033805;28;20491;-65
2023/09/22 01:11:11;;;;;;;2.60;2.40;;;14.60;99.90;;;;;;5034013;28;20120;-65
2023/09/22 01:13:37;;;;;;;2.75;2.53;;;14.00;99.90;;;;;;5033892;28;20081;-65
2023/09/22 01:16:03;;;;;;;3.13;2.83;;;14.30;99.90;;;;;;5033654;28;20081;-65
2023/09/22 01:18:30;;;;;;;2.75;2.55;;;14.40;99.90;;;;;;5033876;28;20538;-65
2023/09/22 01:20:59;;;;;;;2.75;2.55;;;14.70;99.90;;;;;;5033860;28;20374;-65
2023/09/22 01:23:24;;;;;;;3.22;2.85;;;14.30;99.90;;;;;;5033849;28;20392;-65
2023/09/22 01:25:50;;;;;;;2.67;2.47;;;14.20;99.90;;;;;;5033830;28;20113;-65
2023/09/22 01:28:16;;;;;;;3.00;2.80;;;14.60;99.90;;;;;;5033732;28;20041;-66
2023/09/22 01:30:42;;;;;;;2.78;2.58;;;14.30;99.90;;;;;;5033772;28;20477;-66
2023/09/22 01:33:09;;;;;;;2.92;2.63;;;14.20;99.90;;;;;;5033663;28;20421;-66
2023/09/22 01:35:35;;;;;;;3.50;2.35;;;15.10;99.90;;;;;;5033607;28;20041;-66
2023/09/22 01:38:16;;;;;;;3.33;2.70;;;14.30;99.90;;;;;;5033564;28;20041;-66
2023/09/22 01:40:42;;;;;;;2.63;2.42;;;14.30;99.90;;;;;;5033566;28;20030;-66
2023/09/22 01:43:08;;;;;;;2.55;2.35;;;14.20;99.90;;;;;;5033272;28;20120;-65
2023/09/22 01:45:34;;;;;;;2.70;2.50;;;14.10;99.90;;;;;;5033528;28;20073;-66
2023/09/22 01:47:59;;;;;;;2.83;2.63;;;14.10;99.90;;;;;;5015633;28;20045;-66
2023/09/22 01:50:25;;;;;;;3.17;2.58;;;14.40;99.90;;;;;;5033398;28;20045;-66
2023/09/22 01:52:52;;;;;;;3.53;2.50;;;14.30;99.90;;;;;;5033269;28;20037;-66
2023/09/22 01:55:19;;;;;;;2.67;2.47;;;14.20;99.90;;;;;;5032965;28;20107;-66
2023/09/22 01:57:49;;;;;;;2.75;2.47;;;14.10;99.90;;;;;;5033053;28;20081;-66
2023/09/22 02:00:15;;;;;;;2.65;2.45;;;14.20;99.90;;;;;;5015371;28;20400;-66
2023/09/22 02:02:42;;;;;;;3.17;2.88;;;14.30;99.90;;;;;;5033216;28;20079;-66
2023/09/22 02:05:11;;;;;;;3.03;2.72;;;14.30;99.90;;;;;;5032831;28;20041;-66
2023/09/22 02:07:37;;;;;;;2.65;2.45;;;14.70;99.90;;;;;;5033223;28;20047;-66
2023/09/22 02:10:04;;;;;;;2.97;2.78;;;14.00;99.90;;;;;;5033169;28;20382;-65
2023/09/22 02:12:30;;;;;;;3.30;2.53;;;14.40;99.90;;;;;;5033144;28;20041;-66
2023/09/22 02:14:56;;;;;;;3.22;2.58;;;14.30;99.90;;;;;;5033011;28;20517;-66
2023/09/22 02:17:22;;;;;;;2.45;2.25;;;14.20;99.90;;;;;;5032813;28;20049;-67
2023/09/22 02:19:48;;;;;;;2.60;2.40;;;14.10;99.90;;;;;;5039375;28;20052;-66
2023/09/22 02:22:13;;;;;;;2.58;2.38;;;14.00;99.90;;;;;;5039379;28;20037;-66
2023/09/22 02:24:39;;;;;;;2.65;2.45;;;14.10;99.90;;;;;;5039629;28;20535;-66
2023/09/22 02:27:05;;;;;;;2.88;2.67;;;14.40;99.90;;;;;;5039320;28;20042;-68
2023/09/22 02:29:31;;;;;;;2.47;2.22;;;14.00;99.90;;;;;;5039585;28;20091;-66
2023/09/22 02:31:56;;;;;;;2.72;2.53;;;14.60;99.90;;;;;;5039220;28;20401;-66
2023/09/22 02:34:22;;;;;;;2.85;2.63;;;14.20;99.90;;;;;;5039204;28;20041;-66
2023/09/22 02:36:48;;;;;;;2.55;2.35;;;14.10;99.90;;;;;;5021491;28;20425;-66
2023/09/22 02:39:17;;;;;;;3.20;2.90;;;14.40;99.90;;;;;;5039640;28;20393;-72
2023/09/22 02:41:43;;;;;;;2.80;2.60;;;13.90;99.90;;;;;;5039455;28;20073;-72
2023/09/22 02:44:10;;;;;;;3.05;2.85;;;14.00;99.90;;;;;;5039451;28;20466;-70
2023/09/22 02:46:35;;;;;;;2.70;2.50;;;14.00;99.90;;;;;;5039457;28;20037;-70
2023/09/22 02:49:01;;;;;;;3.58;3.28;;;14.40;99.90;;;;;;5039377;28;20038;-70
2023/09/22 02:51:26;;;;;;;2.78;2.58;;;13.90;99.90;;;;;;5039380;28;20044;-70
2023/09/22 02:53:55;;;;;;;3.05;2.80;;;14.10;99.90;;;;;;5038927;28;20081;-70
2023/09/22 02:56:21;;;;;;;3.45;3.15;;;14.10;99.90;;;;;;5039363;28;20048;-70
2023/09/22 02:58:48;;;;;;;3.10;2.80;;;14.00;99.90;;;;;;5039103;28;20033;-70
2023/09/22 03:01:14;;;;;;;3.35;3.05;;;13.90;99.90;;;;;;5021623;28;20121;-70
2023/09/22 03:03:43;;;;;;;2.80;2.60;;;13.90;99.90;;;;;;5039309;28;20477;-70
2023/09/22 03:06:12;;;;;;;3.17;2.95;;;14.00;99.90;;;;;;5039191;28;20562;-70
2023/09/22 03:08:39;;;;;;;2.97;2.75;;;14.80;99.90;;;;;;5039234;28;20420;-70
2023/09/22 03:11:05;;;;;;;2.92;2.72;;;13.90;99.90;;;;;;5021261;28;20484;-71
2023/09/22 03:13:31;;;;;;;3.72;3.38;;;13.90;99.90;;;;;;5039136;28;20041;-70
2023/09/22 03:15:57;;;;;;;2.92;2.72;;;13.90;99.90;;;;;;5038852;28;20196;-71
2023/09/22 03:18:23;;;;;;;3.15;2.83;;;14.00;99.90;;;;;;5039136;28;20068;-73
2023/09/22 03:20:49;;;;;;;2.85;2.65;;;13.80;99.90;;;;;;5039091;28;20033;-71
2023/09/22 03:23:16;;;;;;;2.78;2.45;;;14.00;99.90;;;;;;5021358;28;20382;-69
2023/09/22 03:25:47;;;;;;;3.00;2.80;;;13.80;99.90;;;;;;5039076;28;20033;-70
2023/09/22 03:28:13;;;;;;;3.33;3.03;;;13.90;99.90;;;;;;5021149;28;20051;-66
2023/09/22 03:30:39;;;;;;;3.92;3.20;;;13.90;99.90;;;;;;5018025;28;20049;-66
2023/09/22 03:33:05;;;;;;;3.30;3.00;;;13.80;99.90;;;;;;5035864;28;20452;-66
2023/09/22 03:35:31;;;;;;;3.58;3.28;;;13.90;99.90;;;;;;5035747;28;20037;-66
2023/09/22 03:37:57;;;;;;;3.00;2.80;;;13.70;99.90;;;;;;5018282;28;20092;-66
2023/09/22 03:40:32;;;;;;;2.90;2.70;;;14.00;99.90;;;;;;5035794;28;20029;-66
2023/09/22 03:43:03;;;;;;;3.00;2.70;;;13.80;99.90;;;;;;5035701;28;20056;-66
2023/09/22 03:45:29;;;;;;;3.58;3.28;;;13.80;99.90;;;;;;5035463;28;20033;-66
2023/09/22 03:47:55;;;;;;;2.88;2.67;;;15.00;99.90;;;;;;5017723;28;20045;-66
2023/09/22 03:50:21;;;;;;;3.50;3.05;;;13.80;99.90;;;;;;5035540;28;20470;-66
2023/09/22 03:52:46;;;;;;;2.78;2.53;;;13.70;99.90;;;;;;5035209;28;20045;-66
2023/09/22 03:55:14;;;;;;;3.38;3.08;;;13.80;99.90;;;;;;5035122;28;20045;-66
2023/09/22 03:57:40;;;;;;;3.38;3.08;;;14.30;99.90;;;;;;5035147;28;20080;-67
2023/09/22 04:00:15;;;;;;;3.42;3.13;;;13.80;99.90;;;;;;5035096;28;20037;-67
2023/09/22 04:02:41;;;;;;;3.40;3.10;;;13.80;99.90;;;;;;5035391;28;20045;-66
2023/09/22 04:05:08;;;;;;;3.15;2.85;;;13.70;99.90;;;;;;5035285;28;20520;-67
2023/09/22 04:07:35;;;;;;;3.45;3.15;;;13.70;99.90;;;;;;5034939;28;20037;-67
2023/09/22 04:10:03;;;;;;;3.17;2.88;;;14.40;99.90;;;;;;5035190;28;20048;-66
2023/09/22 04:12:28;;;;;;;3.42;3.13;;;13.70;99.90;;;;;;5034922;28;20048;-66
2023/09/22 04:14:55;;;;;;;3.25;2.95;;;14.60;99.90;;;;;;5034715;28;20477;-66
2023/09/22 04:17:21;;;;;;;3.00;2.80;;;13.60;99.90;;;;;;5034686;28;20053;-66
2023/09/22 04:19:49;;;;;;;3.17;2.83;;;14.10;99.90;;;;;;5017264;28;20056;-66
2023/09/22 04:22:16;;;;;;;3.40;3.10;;;13.60;99.90;;;;;;5035023;28;20481;-66
2023/09/22 04:24:47;;;;;;;3.40;3.10;;;13.90;99.90;;;;;;5034968;28;20041;-66
2023/09/22 04:27:14;;;;;;;3.15;2.85;;;13.70;99.90;;;;;;5034594;28;20089;-66
2023/09/22 04:29:40;;;;;;;3.22;2.92;;;13.60;99.90;;;;;;5034873;28;20045;-66
2023/09/22 04:32:06;;;;;;;3.42;3.13;;;13.70;99.90;;;;;;5034824;28;20039;-66
2023/09/22 04:34:32;;;;;;;3.50;3.20;;;13.50;99.90;;;;;;5034679;28;20120;-66
2023/09/22 04:36:58;;;;;;;3.22;2.92;;;13.60;99.90;;;;;;5034677;28;20091;-65
2023/09/22 04:39:24;;;;;;;3.47;3.17;;;13.60;99.90;;;;;;5034706;28;20117;-70
2023/09/22 04:41:50;;;;;;;3.83;3.42;;;13.60;99.90;;;;;;5034121;28;20091;-69
2023/09/22 04:44:16;;;;;;;3.88;3.50;;;13.30;99.90;;;;;;5034360;28;20049;-70
2023/09/22 04:46:42;;;;;;;3.60;3.30;;;13.80;99.90;;;;;;5016832;28;20041;-72
2023/09/22 04:49:10;;;;;;;3.58;3.22;;;13.90;99.90;;;;;;5034123;28;20040;-70
2023/09/22 04:51:35;;;;;;;3.97;3.17;;;13.40;99.90;;;;;;5016407;28;20041;-71
2023/09/22 04:54:02;;;;;;;3.72;3.42;;;13.40;99.90;;;;;;5034015;28;20045;-69
2023/09/22 04:56:28;;;;;;;3.65;3.35;;;13.80;99.90;;;;;;5034076;28;20033;-70
2023/09/22 04:58:56;;;;;;;3.47;3.17;;;14.00;99.90;;;;;;5034377;28;20041;-66
2023/09/22 05:01:24;;;;;;;3.50;3.20;;;14.00;99.90;;;;;;5034296;28;20072;-66
2023/09/22 05:03:50;;;;;;;3.40;3.08;;;13.30;99.90;;;;;;5034200;28;20049;-66
2023/09/22 05:06:16;;;;;;;3.85;3.45;;;13.50;99.90;;;;;;5033954;28;20043;-65
2023/09/22 05:08:42;;;;;;;4.20;3.33;;;13.30;99.90;;;;;;5033754;28;20116;-66
2023/09/22 05:11:08;;;;;;;3.95;3.22;;;13.20;99.90;;;;;;5034079;28;20088;-66
2023/09/22 05:13:35;;;;;;;4.00;3.60;;;13.20;99.90;;;;;;5033998;28;20042;-66
2023/09/22 05:16:13;;;;;;;4.03;3.72;;;13.10;99.90;;;;;;5033692;28;20416;-66
2023/09/22 05:18:39;;;;;;;4.25;3.85;;;13.30;99.90;;;;;;5033671;28;20045;-65
2023/09/22 05:21:05;;;;;;;4.30;3.90;;;13.10;99.90;;;;;;5033904;28;20537;-65
2023/09/22 05:23:32;;;;;;;4.20;3.90;;;13.30;99.90;;;;;;5033737;28;20038;-66
2023/09/22 05:25:58;;;;;;;4.65;4.25;;;13.10;99.90;;;;;;5015868;28;20043;-66
2023/09/22 05:28:24;;;;;;;4.72;4.32;;;13.20;99.90;;;;;;5033704;28;20033;-65
2023/09/22 05:30:50;;;;;;;4.97;4.57;;;13.20;99.90;;;;;;5033618;28;20453;-63
2023/09/22 05:33:15;;;;;;;5.07;4.68;;;13.10;99.90;;;;;;5033437;28;20037;-67
2023/09/22 05:35:41;;;;;;;4.53;4.13;;;13.10;99.90;;;;;;5015655;28;20079;-62
2023/09/22 05:38:08;;;;;;;4.78;4.38;;;13.10;99.90;;;;;;5033567;28;20049;-63
2023/09/22 05:40:35;;;;;;;5.47;5.07;;;13.10;99.90;;;;;;5015946;28;20037;-65
2023/09/22 05:43:05;;;;;;;5.35;4.85;;;13.30;99.90;;;;;;5033421;28;20073;-64
2023/09/22 05:45:31;;;;;;;5.43;4.95;;;13.00;99.90;;;;;;5033483;28;20052;-65
2023/09/22 05:47:56;;;;;;;5.18;4.78;;;13.20;99.90;;;;;;5033092;28;20052;-67
2023/09/22 05:50:25;;;;;;;5.70;5.20;;;13.20;99.90;;;;;;5033496;28;20034;-65
2023/09/22 05:52:51;;;;;;;5.15;4.75;;;13.00;99.90;;;;;;5032756;28;20113;-64
2023/09/22 05:55:19;;;;;;;4.43;4.13;;;13.10;99.90;;;;;;5033227;28;20095;-65
2023/09/22 05:57:45;;;;;;;5.10;4.70;;;13.00;99.90;;;;;;5032946;28;20029;-65
2023/09/22 06:00:26;;;;;;;5.07;4.68;;;13.20;99.90;;;;;;5032925;28;20040;-65
2023/09/22 06:02:52;;;;;;;5.57;5.03;;;13.00;99.90;;;;;;5032985;28;20045;-69
2023/09/22 06:05:18;;;;;;;4.70;4.32;;;13.10;99.90;;;;;;5033192;28;20456;-69
2023/09/22 06:07:44;;;;;;;4.30;4.00;;;13.00;99.90;;;;;;5033120;28;20049;-70
2023/09/22 06:10:10;;;;;;;4.70;4.30;;;13.10;99.90;;;;;;5033169;28;20103;-66
2023/09/22 06:12:37;;;;;;;4.57;4.18;;;13.00;99.90;;;;;;5033114;28;20486;-66
2023/09/22 06:15:07;;;;;;;4.40;4.00;;;13.00;99.90;;;;;;5033013;28;20079;-67
2023/09/22 06:17:33;;;;;;;7.28;4.85;;;13.10;99.90;;;;;;5032401;28;20112;-66
2023/09/22 06:19:59;;;;;;;4.57;4.18;;;13.20;99.90;;;;;;5032692;28;20030;-67
2023/09/22 06:22:24;;;;;;;4.60;4.20;;;13.20;99.90;;;;;;5032994;28;20034;-67
2023/09/22 06:24:51;;;;;;;4.25;3.95;;;13.10;99.90;;;;;;5032972;28;20038;-66
2023/09/22 06:27:16;;;;;;;4.50;4.10;;;13.10;99.90;;;;;;5032887;28;20045;-65
2023/09/22 06:29:42;;;;;;;3.97;3.67;;;13.00;99.90;;;;;;5032950;28;20064;-65
2023/09/22 06:32:07;;;;;;;3.70;3.40;;;13.20;99.90;;;;;;5032564;28;20041;-65
2023/09/22 06:34:33;;;;;;;4.05;3.75;;;13.10;99.90;;;;;;5032909;28;20037;-65
2023/09/22 06:36:59;;;;;;;3.92;3.53;;;13.10;99.90;;;;;;5032836;28;20052;-65
2023/09/22 06:39:24;;;;;;;4.72;3.60;;;13.00;99.90;;;;;;5033174;28;20041;-64
2023/09/22 06:41:50;;;;;;;3.58;3.25;;;13.40;99.90;;;;;;5032772;28;20045;-65
2023/09/22 06:44:16;;;;;;;3.97;3.67;;;13.50;99.90;;;;;;5032912;28;20045;-65
2023/09/22 06:46:42;;;;;;;3.60;3.30;;;13.10;99.90;;;;;;5031694;28;20529;-65
2023/09/22 06:49:08;;;;;;;4.50;3.83;;;13.30;99.90;;;;;;5032758;28;20132;-64
2023/09/22 06:51:36;;;;;;;3.60;3.30;;;13.40;99.90;;;;;;5032845;28;20037;-65
2023/09/22 06:54:02;;;;;;;3.60;3.25;;;13.40;99.90;;;;;;5032666;28;20038;-65
2023/09/22 06:56:28;;;;;;;4.05;3.65;;;13.40;99.90;;;;;;5032737;28;20038;-65
2023/09/22 06:58:53;;;;;;;3.63;3.33;;;13.30;99.90;;;;;;5032358;28;20044;-65
2023/09/22 07:01:19;;;;;;;4.10;2.92;;;13.40;99.90;;;;;;5032764;28;20033;-67
2023/09/22 07:03:46;;;;;;;3.63;3.33;;;13.50;99.90;;;;;;5032704;28;20483;-66
2023/09/22 07:06:14;;;;;;;3.00;2.70;;;13.10;99.90;;;;;;5034859;28;20041;-66
2023/09/22 07:08:41;;;;;;;3.10;2.85;;;13.30;99.90;;;;;;5036403;28;20519;-66
2023/09/22 07:11:08;;;;;;;3.15;2.85;;;13.40;99.90;;;;;;5036175;28;20128;-67
2023/09/22 07:13:40;;;;;;;3.35;3.10;;;13.30;99.90;;;;;;5036173;28;20458;-66
2023/09/22 07:16:06;;;;;;;3.42;2.83;;;13.40;99.90;;;;;;5035891;28;20059;-67
2023/09/22 07:18:32;;;;;;;2.63;2.42;;;13.40;99.90;;;;;;5036236;28;20117;-68
2023/09/22 07:21:00;;;;;;;2.92;2.72;;;13.60;99.90;;;;;;5018593;28;20049;-69
2023/09/22 07:23:25;;;;;;;2.63;2.42;;;13.40;99.90;;;;;;5036113;28;20436;-72
2023/09/22 07:26:01;;;;;;;2.90;2.65;;;13.30;99.90;;;;;;5036118;28;20037;-70
2023/09/22 07:28:28;;;;;;;2.85;2.60;;;13.30;99.90;;;;;;5035799;28;20052;-70
2023/09/22 07:30:54;;;;;;;2.70;2.50;;;13.30;99.90;;;;;;5018062;28;20049;-72
2023/09/22 07:33:21;;;;;;;2.47;2.28;;;13.40;99.90;;;;;;5035601;28;20033;-71
2023/09/22 07:35:48;;;;;;;2.83;2.60;;;13.40;99.90;;;;;;5035797;28;20045;-71
2023/09/22 07:38:15;;;;;;;2.97;2.67;;;13.30;99.90;;;;;;5035849;28;20048;-71
2023/09/22 07:40:41;;;;;;;2.53;2.33;;;13.50;99.90;;;;;;5035768;28;20464;-71
2023/09/22 07:43:07;;;;;;;2.60;2.40;;;13.70;99.90;;;;;;5035421;28;20081;-71
2023/09/22 07:45:33;;;;;;;2.40;2.20;;;13.40;99.90;;;;;;5035377;28;20045;-71
2023/09/22 07:47:58;;;;;;;2.63;2.30;;;13.40;99.90;;;;;;5035646;28;20037;-70
2023/09/22 07:50:24;;;;;;;2.55;2.35;;;13.40;99.90;;;;;;5035613;28;20071;-71
2023/09/22 07:52:50;;;;;;;2.60;2.05;;;13.40;99.90;;;;;;5035525;28;20037;-71
2023/09/22 07:55:16;;;;;;;2.22;2.03;;;13.40;99.90;;;;;;5035163;28;20049;-70
2023/09/22 07:57:46;;;;;;;1.73;1.63;;;13.40;99.90;;;;;;5035477;28;20039;-70
2023/09/22 08:00:14;;;;;;;1.98;1.85;;;13.40;99.90;;;;;;5035477;28;20367;-71
2023/09/22 08:02:40;;;;;;;2.70;2.15;;;13.40;99.90;;;;;;5017317;28;20046;-72
2023/09/22 08:05:06;;;;;;;2.35;2.10;;;13.50;99.90;;;;;;5035312;28;20048;-71
2023/09/22 08:07:31;;;;;;;2.30;2.10;;;13.60;99.90;;;;;;5017298;28;20091;-70
2023/09/22 08:09:57;;;;;;;2.00;1.73;;;13.70;99.90;;;;;;5017291;28;20073;-70
2023/09/22 08:12:23;;;;;;;1.83;1.67;;;13.60;99.90;;;;;;5035242;28;20484;-70
2023/09/22 08:14:48;;;;;;;3.45;2.28;;;13.50;99.90;;;;;;5017202;28;20125;-71
2023/09/22 08:17:15;;;;;;;2.58;2.05;;;13.60;99.90;;;;;;5016530;28;20128;-70
2023/09/22 08:19:41;;;;;;;1.88;1.60;;;13.60;99.90;;;;;;5017088;28;20041;-64
2023/09/22 08:22:06;;;;;;;1.60;1.50;;;13.70;99.90;;;;;;5017029;28;20068;-64
2023/09/22 08:24:32;;;;;;;1.42;1.33;;;13.70;99.90;;;;;;5034969;28;20583;-64
2023/09/22 08:26:59;;;;;;;1.60;1.50;;;13.80;99.90;;;;;;5034848;28;20121;-64
2023/09/22 08:29:25;;;;;;;1.65;1.40;;;13.80;99.90;;;;;;5034984;28;20160;-64
2023/09/22 08:31:51;;;;;;;2.50;1.88;;;13.80;99.90;;;;;;5033363;28;20041;-65
2023/09/22 08:34:16;;;;;;;3.10;1.88;;;13.80;99.90;;;;;;5034216;28;20045;-65
2023/09/22 08:36:42;;;;;;;1.77;1.52;;;13.80;99.90;;;;;;5034683;28;20045;-66
2023/09/22 08:39:08;;;;;;;1.50;1.40;;;13.90;99.90;;;;;;5034624;28;20053;-64
2023/09/22 08:41:37;;;;;;;2.08;1.73;;;13.90;99.90;;;;;;5034546;28;20392;-64
2023/09/22 08:44:05;;;;;;;1.63;1.33;;;14.00;99.90;;;;;;5034491;28;20103;-65
2023/09/22 08:46:33;;;;;;;1.92;1.70;;;14.00;99.90;;;;;;5034477;28;20037;-65
2023/09/22 08:48:58;;;;;;;1.17;1.08;;;14.00;99.90;;;;;;5034006;28;20072;-65
2023/09/22 08:51:24;;;;;;;1.70;1.60;;;14.00;99.90;;;;;;5034117;28;20040;-64
2023/09/22 08:53:53;;;;;;;1.50;1.10;;;14.20;99.90;;;;;;5016452;28;20048;-64
2023/09/22 08:56:21;;;;;;;1.20;1.10;;;14.10;99.90;;;;;;5034278;28;20346;-65
2023/09/22 08:58:47;;;;;;;2.05;1.20;;;14.10;99.90;;;;;;5033836;28;20037;-64
2023/09/22 09:01:13;;;;;;;1.25;1.00;;;14.20;99.90;;;;;;5034170;28;20045;-64
2023/09/22 09:03:39;;;;;;;1.42;0.90;;;14.30;99.90;;;;;;5034078;28;20102;-64
2023/09/22 09:06:09;;;;;;;1.23;1.10;;;14.30;99.90;;;;;;5034176;28;20117;-64
2023/09/22 09:08:35;;;;;;;2.30;1.05;;;14.30;99.90;;;;;;5033999;28;20041;-64
2023/09/22 09:11:13;;;;;;;1.20;1.10;;;14.40;99.90;;;;;;5033905;28;20033;-65
2023/09/22 09:13:38;;;;;;;1.05;0.95;;;14.40;99.90;;;;;;5033618;28;20041;-64
2023/09/22 09:16:08;;;;;;;1.77;0.82;;;14.50;99.90;;;;;;5033593;28;20061;-63
2023/09/22 09:18:34;;;;;;;1.85;1.17;;;14.60;99.90;;;;;;5033954;28;20045;-66
2023/09/22 09:21:12;;;;;;;0.95;0.90;;;14.60;99.90;;;;;;5033899;28;20083;-64
2023/09/22 09:23:54;;;;;;;1.38;0.93;;;14.60;99.90;;;;;;5033517;28;20045;-64
2023/09/22 09:26:30;;;;;;;1.10;0.75;;;14.50;99.90;;;;;;5033849;28;20117;-64
2023/09/22 09:28:57;;;;;;;0.50;0.50;;;14.60;99.90;;;;;;5032984;28;20045;-64
2023/09/22 09:31:47;;;;;;;1.00;0.63;;;14.60;99.90;;;;;;5033897;28;20030;-71
2023/09/22 09:34:14;;;;;;;0.90;0.77;;;14.60;99.90;;;;;;5015980;28;20045;-70
2023/09/22 09:36:40;;;;;;;0.60;0.60;;;14.60;99.90;;;;;;5033631;28;20038;-70
2023/09/22 09:39:06;;;;;;;1.25;0.65;;;14.60;99.90;;;;;;5033644;28;20397;-70
2023/09/22 09:41:32;;;;;;;1.25;0.60;;;14.70;99.90;;;;;;5033690;28;20037;-63
2023/09/22 09:44:00;;;;;;;0.57;0.45;;;14.80;99.90;;;;;;5033256;28;20041;-64
2023/09/22 09:46:28;;;;;;;0.35;0.32;;;14.80;99.90;;;;;;5033296;28;20045;-64
2023/09/22 09:48:55;;;;;;;0.57;0.57;;;14.90;99.90;;;;;;5033418;28;20044;-64
2023/09/22 09:51:24;;;;;;;0.50;0.50;;;15.10;99.90;;;;;;5033171;28;20111;-64
2023/09/22 09:53:54;;;;;;;0.35;0.35;;;15.30;99.90;;;;;;5015310;28;20120;-65
2023/09/22 09:56:21;;;;;;;0.40;0.40;;;15.50;99.90;;;;;;5033384;28;20087;-65
2023/09/22 09:58:48;;;;;;;0.50;0.50;;;15.90;99.90;;;;;;5015308;28;20085;-63
2023/09/22 10:01:14;;;;;;;0.50;0.50;;;16.00;99.90;;;;;;5033122;28;20467;-63
2023/09/22 10:03:40;;;;;;;0.50;0.50;;;16.00;99.90;;;;;;5032957;28;20112;-65
2023/09/22 10:06:10;;;;;;;0.30;0.30;;;;;;;;;;5033205;28;20068;-63
2023/09/22 10:08:39;;;;;;;0.60;0.55;;;16.40;99.90;;;;;;5033165;28;20099;-63
2023/09/22 10:11:08;;;;;;;0.57;0.38;;;16.40;99.90;;;;;;5033141;28;20038;-63
2023/09/22 10:13:36;;;;;;;0.60;0.60;;;16.30;99.90;;;;;;5032807;28;20033;-63
2023/09/22 10:16:06;;;;;;;0.50;0.47;;;16.20;99.90;;;;;;5032883;28;20394;-63
2023/09/22 10:18:50;;;;;;;1.05;0.70;;;16.10;99.90;;;;;;5032998;28;20087;-63
2023/09/22 10:21:28;;;;;;;0.70;0.70;;;16.00;99.90;;;;;;5033071;28;20120;-64
2023/09/22 10:24:23;;;;;;;0.50;0.50;;;16.30;99.90;;;;;;5033019;28;20116;-63
2023/09/22 10:26:55;;;;;;;0.50;0.50;;;15.80;99.90;;;;;;5032728;28;20440;-63
2023/09/22 10:29:33;;;;;;;0.70;0.70;;;15.70;99.90;;;;;;5032682;28;20084;-63
2023/09/22 10:34:49;;;;;;;0.32;0.32;;;16.10;99.90;;;;;;5032838;28;20049;-64
2023/09/22 10:37:15;;;;;;;0.30;0.30;;;15.50;99.90;;;;;;5032684;28;20045;-63
2023/09/22 10:40:06;;;;;;;0.30;0.30;;;15.40;99.90;;;;;;5034759;28;20069;-63
2023/09/22 10:42:34;;;;;;;0.22;0.22;;;15.30;99.90;;;;;;5037042;28;20042;-64
2023/09/22 10:45:02;;;;;;;0.63;0.50;;;15.30;99.90;;;;;;5036835;28;20047;-65
2023/09/22 10:47:37;;;;;;;0.68;0.50;;;15.30;99.90;;;;;;5036810;28;20068;-64
2023/09/22 10:50:25;;;;;;;0.40;0.40;;;15.20;99.90;;;;;;5036746;28;20132;-65
2023/09/22 10:52:53;;;;;;;0.50;0.45;;;15.30;99.90;;;;;;5036653;28;20370;-64
2023/09/22 10:55:40;;;;;;;0.38;0.38;;;15.20;99.90;;;;;;5036556;28;20042;-64
2023/09/22 10:58:08;;;;;;;0.30;0.30;;;15.10;99.90;;;;;;5018633;28;20422;-64
2023/09/22 11:00:45;;;;;;;0.47;0.40;;;15.20;99.90;;;;;;5036266;28;20051;-64
2023/09/22 11:03:14;;;;;;;0.77;0.50;;;15.20;99.90;;;;;;5036508;28;20418;-64
2023/09/22 11:05:41;;;;;;;1.65;0.50;;;15.30;99.90;;;;;;5036466;28;20045;-64
2023/09/22 11:08:13;;;;;;;0.30;0.30;;;15.40;99.90;;;;;;5036375;28;20048;-64
2023/09/22 11:10:46;;;;;;;0.50;0.50;;;15.50;99.90;;;;;;5036380;28;20041;-63
2023/09/22 11:13:14;;;;;;;0.30;0.30;;;15.70;99.90;;;;;;5036011;28;20042;-64
2023/09/22 11:15:56;;;;;;;0.35;0.30;;;15.90;99.90;;;;;;5035711;28;20092;-64
2023/09/22 11:18:32;;;;;;;0.47;0.47;;;16.30;99.90;;;;;;5036274;28;20104;-63
2023/09/22 11:21:05;;;;;;;0.43;0.43;;;16.50;99.90;;;;;;5036154;28;20125;-63
2023/09/22 11:23:31;;;;;;;0.50;0.40;;;16.70;99.90;;;;;;5036227;28;20037;-64
2023/09/22 11:25:58;;;;;;;0.60;0.60;;;16.80;99.90;;;;;;5036120;28;20057;-64
2023/09/22 11:28:24;;;;;;;0.40;0.40;;;16.80;99.90;;;;;;5036089;28;20045;-64
2023/09/22 11:30:53;;;;;;;0.40;0.40;;;16.90;99.90;;;;;;5035623;28;20071;-64
2023/09/22 11:33:19;;;;;;;0.50;0.50;;;16.70;99.90;;;;;;5035922;28;20117;-64
2023/09/22 11:35:47;;;;;;;0.55;0.55;;;16.90;99.90;;;;;;5017869;28;20075;-64
2023/09/22 11:38:23;;;;;;;0.77;0.77;;;16.90;99.90;;;;;;5035889;28;20429;-63
2023/09/22 11:41:08;;;;;;;0.85;0.50;;;16.70;99.90;;;;;;5017751;28;20076;-64
2023/09/22 11:44:05;;;;;;;0.43;0.43;;;16.60;99.90;;;;;;5035767;28;20403;-64
2023/09/22 11:46:31;;;;;;;0.40;0.40;;;16.70;99.90;;;;;;5026411;28;20056;-65
2023/09/22 11:49:04;;;;;;;0.40;0.40;;;16.80;99.90;;;;;;5035618;28;20041;-64
2023/09/22 11:51:55;;;;;;;0.80;0.57;;;16.90;99.90;;;;;;5034854;28;20464;-63
2023/09/22 11:54:26;;;;;;;0.30;0.30;;;17.00;98.00;;;;;;5035418;28;20470;-63
2023/09/22 11:56:54;;;;;;;;;;;17.20;99.90;;;;;;5035635;28;20041;-63
2023/09/22 11:59:21;;;;;;;1.05;0.60;;;17.00;91.60;;;;;;5035439;28;20297;-64
2023/09/22 12:01:48;;;;;;;0.82;0.30;;;17.00;97.10;;;;;;5017691;28;20045;-63
2023/09/22 12:04:14;;;;;;;0.90;0.50;;;16.90;97.00;;;;;;5001409;28;20124;-63
2023/09/22 12:06:40;;;;;;;0.50;0.50;;;17.00;98.90;;;;;;5035319;28;20099;-63
2023/09/22 12:09:12;;;;;;;0.68;0.68;;;16.90;99.90;;;;;;5035300;28;20409;-64
2023/09/22 12:11:39;;;;;;;0.40;0.40;;;16.90;99.80;;;;;;5035410;28;20491;-68
2023/09/22 12:14:06;;;;;;;0.50;0.50;;;16.90;99.90;;;;;;5035150;28;20436;-68
2023/09/22 12:16:32;;;;;;;0.60;0.60;;;17.00;99.90;;;;;;5034944;28;20053;-69
2023/09/22 12:18:58;;;;;;;0.50;0.50;;;17.00;99.90;;;;;;5034826;28;20167;-67
2023/09/22 12:21:27;;;;;;;0.50;0.50;;;17.00;98.30;;;;;;5035130;28;20175;-67
2023/09/22 12:23:53;;;;;;;0.40;0.40;;;17.90;98.20;;;;;;5035069;28;20045;-67
2023/09/22 12:26:18;;;;;;;0.40;0.40;;;17.20;98.20;;;;;;5017226;28;20033;-67
2023/09/22 12:28:44;;;;;;;0.47;0.47;;;17.00;99.90;;;;;;5034610;28;20033;-67
2023/09/22 12:31:10;;;;;;;0.35;0.30;;;16.80;98.50;;;;;;5034903;28;20037;-67
2023/09/22 12:33:38;;;;;;;0.60;0.60;;;17.70;99.00;;;;;;5034887;28;20401;-67
2023/09/22 12:36:06;;;;;;;0.45;0.43;;;17.00;97.50;;;;;;5034746;28;20087;-67
2023/09/22 12:38:31;;;;;;;0.73;0.57;;;17.00;98.70;;;;;;5016771;28;20041;-67
2023/09/22 12:40:57;;;;;;;0.40;0.40;;;17.00;98.80;;;;;;5034668;28;20035;-67
2023/09/22 12:43:26;;;;;;;0.40;0.40;;;17.00;98.40;;;;;;5034410;28;20042;-67
2023/09/22 12:45:54;;;;;;;0.30;0.30;;;17.30;98.70;;;;;;5034578;28;20041;-67
2023/09/22 12:48:19;;;;;;;0.60;0.60;;;16.80;98.90;;;;;;5034609;28;20456;-66
2023/09/22 12:50:54;;;;;;;0.50;0.50;;;16.70;98.20;;;;;;5034176;28;20124;-66
2023/09/22 12:53:19;;;;;;;0.77;0.77;;;16.70;97.00;;;;;;5034442;28;20037;-67